Chedworth Roman Trail
Skip Navigation Links
09 April 2017
HyperLink
Click on your name for more detailed race data
Page 1 of 9 (432 items)
[1]23456789
Pos
Bib No
Fav
Share
Print
Name
Time
Chip Time
Category
Cat Pos
Gender
Gen Pos
Club
Pace
1461Jack TURNER1:03:13.51:03:13.5Top 3 Male1Male1STROUD & DISTRICT AC 9.5 m/hr
2362James THOMAS1:04:24.41:04:24.4Top 3 Male2Male2CIRENCESTER AC 9.3 m/hr
3155James EVERETT1:04:29.91:04:29.2Top 3 Male3Male3DURSLEY RUNNING CLUB 9.3 m/hr
4490Adrian WILLIAMS1:05:15.41:05:15.4Vet401Male4CIRENCESTER AC 9.2 m/hr
5287Bill LEGGATE1:06:07.71:06:07.6Vet402Male5CIRENCESTER AC 9.1 m/hr
6157Marc FALLOWS1:07:03.01:07:02.7Vet403Male6CHELTENHAM AND COUNTY HARRIERS 8.9 m/hr
735Gwenael BLANCK1:07:15.31:07:13.5SenM1Male7CHELTENHAM TRI CLUB 8.9 m/hr
863Luke BYRNE1:07:16.31:07:14.5SenM2Male8SWINDON HARRIERS 8.9 m/hr
9483Jake WICKENS1:07:17.31:07:16.9SenM3Male9  8.9 m/hr
10447John TIERNEY1:08:22.51:08:21.3SenM4Male10STROUD & DISTRICT AC 8.8 m/hr
11105Matthew CROCKER1:09:38.91:09:38.4Vet404Male11CLEVEDON AC 8.6 m/hr
1253Rob BROWN1:09:59.41:09:58.5SenM5Male12CIRENCESTER AC 8.6 m/hr
1316Matthew BARNES1:10:14.21:10:09.0Vet405Male13ALMOST ATHLETES 8.5 m/hr
14431Andrew STICKLEY1:10:43.61:10:41.2Vet406Male14ALCHESTER RUNNING CLUB 8.5 m/hr
15419Richard SMITH1:11:04.81:11:03.9Vet407Male15STROUD & DISTRICT AC 8.4 m/hr
16408Ian SHELLEY1:11:10.71:11:08.9Vet501Male16CITY OF SALISBURY AC & RC 8.4 m/hr
17488James WILKINSON1:11:43.01:11:41.5SenM6Male17CHELTENHAM AND COUNTY HARRIERS 8.4 m/hr
18323Hamish MORTON1:11:44.51:11:42.2SenM7Male18EXETER UNIVERSITY ATHLETICS CLUB 8.4 m/hr
19142Mark DYER1:11:49.21:11:33.3SenM8Male19  8.4 m/hr
20428Prashanth Kumar SRIPATHI1:12:11.61:12:07.1SenM9Male20ALMOST ATHLETES 8.3 m/hr
21459Holly TUGWELL1:12:37.41:12:36.6Top 3 Female1Female1CIRENCESTER AC 8.3 m/hr
22356Alan PITT1:13:43.51:13:42.3Vet502Male21STROUD & DISTRICT AC 8.1 m/hr
23372Simon RAWLINS1:14:07.01:14:04.2Vet503Male22ROYAL WOOTTON BASSETT HOUNDS RC 8.1 m/hr
24154Charlotte EVERARD1:14:28.51:14:22.9Top 3 Female2Female2SPA STRIDERS 8.1 m/hr
25377Barry REGAN1:14:37.51:14:31.7SenM10Male23  8.0 m/hr
26363Matt POWELL1:14:43.41:14:41.7Vet408Male24GLOUCESTER AC 8.0 m/hr
27345Mark PARKER1:14:46.71:14:43.4Vet409Male25TEWKESBURY AC 8.0 m/hr
2890Philip COLLINS1:14:50.31:14:49.7Vet4010Male26CLEVEDON AC 8.0 m/hr
29203Gemma HARGRAVES1:14:54.91:14:53.3Top 3 Female3Female3ALMOST ATHLETES 8.0 m/hr
30275Richard KING1:15:22.91:15:07.9SenM11Male27HOGWEED TROTTERS 8.0 m/hr
31310Kim MAZZUCCA1:15:25.31:14:28.1Vet451Female4FOREST OF DEAN CANICROSS 8.0 m/hr
32427Nick SPICE1:15:33.41:15:28.8SenM12Male28ALMOST ATHLETES 7.9 m/hr
33233Nik HODGES1:15:39.41:15:38.1Vet4011Male29HALESOWEN ACC 7.9 m/hr
34200Matthew HAMPTON1:16:02.61:15:59.9Vet4012Male30ALMOST ATHLETES 7.9 m/hr
35430Michael STEVENSON1:16:06.61:15:59.4Vet4013Male31STROUD & DISTRICT AC 7.9 m/hr
36141David DURDEN1:16:18.51:16:14.0Vet504Male32DURSLEY RUNNING CLUB 7.9 m/hr
3795Neil CORBIERE1:16:31.51:16:28.6SenM13Male33CIRENCESTER AC 7.8 m/hr
38166Paul FLINN1:16:35.51:16:31.8Vet505Male34STROUD & DISTRICT AC 7.8 m/hr
39278Sarah LACKMAN1:16:36.51:16:27.5SenF1Female5ABINGDON AC 7.8 m/hr
4051Michael BROWN1:16:41.11:16:35.1SenM14Male35DURSLEY RUNNING CLUB 7.8 m/hr
4177Paul CHRISTIAN1:16:57.11:16:50.5SenM15Male36  7.8 m/hr
4280Sophie CHUDLEY1:16:57.71:16:53.4Vet351Female6CIRENCESTER AC 7.8 m/hr
43126Diana DEE1:17:19.81:16:35.3Vet452Female7HIGHWORTH RC 7.8 m/hr
44417Jay SMITH1:17:40.51:17:28.2SenM16Male37SILSON AC 7.7 m/hr
45415Chris SMALLMAN1:17:51.41:17:47.1Vet506Male38  7.7 m/hr
46133Nick DONKIN1:17:54.91:17:51.9SenM17Male39  7.7 m/hr
47366Stephen PRIESTNALL1:18:25.21:18:21.9Vet507Male40RUNNING SOMEWHERE ELSE 7.7 m/hr
48255Terry JEWELL-DAVIES1:18:31.51:18:28.7Vet508Male41WESTBURY HARRIERS 7.6 m/hr
49493Mark WILLICOTT1:18:54.91:18:36.7Vet4014Male42ALMOST ATHLETES 7.6 m/hr
5010Sarah ARMSTRONG1:18:57.41:18:54.1Vet453Female8AMAZING FEET RUNNING CLUB 7.6 m/hr
Page 1 of 9 (432 items)
[1]23456789
fb

HyperLink Copyright (c) G Vincent, 2016